createdAt,value
2018-06-12T00:01:16.955Z,4.00
2018-06-12T00:03:47.887Z,3.70
2018-06-12T00:06:17.348Z,4.40
2018-06-12T00:08:49.401Z,3.93
2018-06-12T00:11:18.553Z,4.37
2018-06-12T00:13:47.580Z,3.53
2018-06-12T00:16:22.059Z,4.33
2018-06-12T00:18:53.671Z,4.40
2018-06-12T00:21:25.786Z,4.30
2018-06-12T00:23:57.790Z,3.87
2018-06-12T00:26:28.490Z,3.97
2018-06-12T00:29:02.742Z,4.27
2018-06-12T00:31:32.306Z,4.73
2018-06-12T00:34:01.847Z,4.80
2018-06-12T00:36:30.810Z,4.30
2018-06-12T00:39:00.887Z,4.03
2018-06-12T00:41:30.526Z,4.00
2018-06-12T00:43:59.462Z,4.03
2018-06-12T00:46:28.818Z,4.20
2018-06-12T00:48:59.075Z,4.30
2018-06-12T00:51:28.714Z,3.90
2018-06-12T00:53:57.919Z,4.40
2018-06-12T00:56:38.173Z,4.50
2018-06-12T00:59:07.603Z,4.80
2018-06-12T01:01:36.943Z,4.40
2018-06-12T01:04:06.198Z,5.00
2018-06-12T01:06:36.795Z,5.33
2018-06-12T01:09:07.808Z,5.80
2018-06-12T01:11:37.024Z,5.23
2018-06-12T01:14:06.560Z,5.43
2018-06-12T01:16:37.407Z,5.17
2018-06-12T01:19:06.607Z,6.37
2018-06-12T01:21:37.018Z,5.90
2018-06-12T01:24:06.510Z,6.90
2018-06-12T01:26:39.376Z,5.90
2018-06-12T01:29:11.214Z,7.27
2018-06-12T01:31:42.986Z,6.77
2018-06-12T01:34:12.544Z,7.40
2018-06-12T01:36:42.227Z,7.20
2018-06-12T01:39:11.964Z,7.27
2018-06-12T01:41:41.610Z,8.10
2018-06-12T01:44:11.435Z,8.07
2018-06-12T01:46:40.452Z,8.20
2018-06-12T01:49:10.071Z,8.33
2018-06-12T01:51:41.536Z,8.10
2018-06-12T01:54:11.474Z,8.20
2018-06-12T01:56:43.186Z,8.70
2018-06-12T01:59:13.358Z,8.27
2018-06-12T02:01:45.347Z,7.93
2018-06-12T02:04:22.324Z,8.13
2018-06-12T02:06:52.011Z,8.10
2018-06-12T02:15:02.102Z,7.53
2018-06-12T02:17:31.526Z,7.17
2018-06-12T02:20:01.050Z,7.77
2018-06-12T02:22:32.258Z,8.60
2018-06-12T02:25:02.547Z,9.53
2018-06-12T02:27:33.688Z,9.17
2018-06-12T02:30:02.990Z,9.87
2018-06-12T02:32:31.887Z,10.67
2018-06-12T02:35:01.808Z,10.30
2018-06-12T02:37:30.845Z,10.33
2018-06-12T02:39:59.729Z,14.67
2018-06-12T02:42:29.247Z,15.17
2018-06-12T02:44:59.197Z,14.17
2018-06-12T02:47:27.922Z,14.77
2018-06-12T02:49:56.864Z,13.50
2018-06-12T02:52:26.358Z,14.10
2018-06-12T02:54:55.323Z,14.20
2018-06-12T02:57:28.005Z,13.40
2018-06-12T02:59:57.173Z,13.83
2018-06-12T03:02:26.116Z,14.47
2018-06-12T03:04:55.266Z,13.60
2018-06-12T03:07:24.890Z,14.93
2018-06-12T03:09:53.786Z,12.57
2018-06-12T03:12:22.650Z,13.03
2018-06-12T03:14:51.907Z,14.00
2018-06-12T03:17:21.213Z,13.37
2018-06-12T03:19:50.654Z,13.30
2018-06-12T03:22:19.485Z,12.60
2018-06-12T03:24:48.798Z,13.20
2018-06-12T03:27:17.815Z,14.07
2018-06-12T03:29:47.345Z,13.63
2018-06-12T03:32:16.381Z,13.63
2018-06-12T03:34:46.158Z,14.53
2018-06-12T03:37:15.354Z,14.63
2018-06-12T03:39:44.332Z,14.70
2018-06-12T03:42:13.792Z,13.87
2018-06-12T03:44:42.724Z,14.90
2018-06-12T03:47:11.461Z,14.67
2018-06-12T03:49:41.041Z,14.60
2018-06-12T03:52:10.569Z,15.63
2018-06-12T03:54:39.830Z,14.47
2018-06-12T03:57:08.745Z,14.10
2018-06-12T03:59:38.410Z,15.10
2018-06-12T04:02:08.029Z,16.10
2018-06-12T04:04:36.970Z,14.93
2018-06-12T04:07:06.026Z,13.53
2018-06-12T04:09:35.089Z,15.20
2018-06-12T04:12:04.291Z,14.33
2018-06-12T04:14:34.076Z,15.30
2018-06-12T04:17:04.507Z,15.07
2018-06-12T04:19:34.234Z,14.67
2018-06-12T04:22:04.609Z,14.07
2018-06-12T04:24:33.756Z,14.87
2018-06-12T04:27:03.201Z,14.50
2018-06-12T04:29:32.843Z,14.77
2018-06-12T04:32:02.497Z,14.17
2018-06-12T04:34:31.775Z,14.00
2018-06-12T04:37:01.078Z,14.30
2018-06-12T04:39:31.118Z,15.00
2018-06-12T04:42:01.229Z,14.63
2018-06-12T04:44:30.613Z,13.20
2018-06-12T04:46:59.596Z,15.20
2018-06-12T04:49:29.224Z,13.77
2018-06-12T04:51:58.214Z,14.33
2018-06-12T04:54:27.187Z,13.70
2018-06-12T04:56:57.464Z,14.97
2018-06-12T04:59:27.174Z,13.50
2018-06-12T05:01:58.633Z,13.47
2018-06-12T05:04:28.147Z,14.47
2018-06-12T05:06:57.068Z,13.67
2018-06-12T05:09:26.452Z,14.20
2018-06-12T05:11:55.448Z,13.23
2018-06-12T05:14:25.142Z,14.37
2018-06-12T05:16:54.536Z,13.70
2018-06-12T05:19:24.055Z,13.23
2018-06-12T05:21:53.635Z,14.13
2018-06-12T05:24:23.047Z,14.33
2018-06-12T05:26:51.881Z,13.80
2018-06-12T05:29:20.721Z,13.93
2018-06-12T05:31:50.134Z,14.37
2018-06-12T05:34:18.986Z,13.00
2018-06-12T05:36:48.533Z,13.47
2018-06-12T05:39:18.136Z,13.03
2018-06-12T05:41:47.413Z,13.63
2018-06-12T05:44:16.677Z,13.77
2018-06-12T05:46:45.700Z,13.67
2018-06-12T05:49:14.714Z,14.70
2018-06-12T05:51:43.598Z,14.60
2018-06-12T05:54:12.641Z,14.03
2018-06-12T05:56:41.520Z,13.80
2018-06-12T05:59:10.608Z,14.47
2018-06-12T06:01:39.580Z,13.03
2018-06-12T06:04:09.382Z,13.53
2018-06-12T06:06:39.921Z,13.83
2018-06-12T06:09:09.175Z,14.57
2018-06-12T06:11:38.469Z,14.33
2018-06-12T06:14:08.256Z,13.20
2018-06-12T06:16:37.606Z,12.83
2018-06-12T06:19:06.522Z,11.70
2018-06-12T06:21:35.555Z,11.73
2018-06-12T06:24:05.059Z,12.37
2018-06-12T06:26:34.297Z,12.43
2018-06-12T06:29:04.129Z,12.00
2018-06-12T06:31:34.004Z,11.90
2018-06-12T06:34:03.374Z,12.13
2018-06-12T06:36:33.079Z,12.07
2018-06-12T06:39:02.394Z,12.27
2018-06-12T06:41:31.645Z,11.87
2018-06-12T06:44:01.113Z,11.23
2018-06-12T06:46:30.675Z,10.83
2018-06-12T06:49:00.516Z,11.80
2018-06-12T06:51:30.585Z,11.50
2018-06-12T06:54:00.017Z,10.57
2018-06-12T06:56:28.818Z,9.97
2018-06-12T06:58:57.873Z,10.17
2018-06-12T07:01:27.748Z,9.37
2018-06-12T07:03:57.024Z,8.53
2018-06-12T07:06:26.928Z,8.77
2018-06-12T07:08:56.034Z,9.20
2018-06-12T07:11:24.816Z,8.93
2018-06-12T07:13:53.416Z,8.90
2018-06-12T07:16:23.067Z,8.83
2018-06-12T07:18:52.087Z,9.53
2018-06-12T07:21:24.510Z,9.63
2018-06-12T07:23:53.129Z,9.10
2018-06-12T07:26:22.619Z,9.33
2018-06-12T07:28:51.596Z,8.67
2018-06-12T07:31:20.541Z,7.67
2018-06-12T07:33:49.269Z,6.60
2018-06-12T07:36:18.546Z,6.53
2018-06-12T07:38:47.354Z,7.22
2018-06-12T07:41:15.953Z,6.25
2018-06-12T07:43:44.777Z,6.72
2018-06-12T07:46:13.456Z,7.13
2018-06-12T07:48:42.046Z,6.07
2018-06-12T07:51:11.110Z,7.00
2018-06-12T07:53:39.869Z,6.57
2018-06-12T07:56:08.397Z,7.47
2018-06-12T07:58:37.745Z,6.63
2018-06-12T08:01:06.342Z,7.23
2018-06-12T08:03:34.990Z,7.13
2018-06-12T08:06:03.540Z,7.77
2018-06-12T08:08:32.197Z,7.70
2018-06-12T08:11:00.729Z,7.57
2018-06-12T08:13:29.300Z,7.70
2018-06-12T08:15:57.910Z,8.00
2018-06-12T08:18:26.402Z,7.60
2018-06-12T08:20:54.955Z,7.63
2018-06-12T08:23:23.481Z,7.40
2018-06-12T08:25:52.056Z,8.27
2018-06-12T08:28:20.621Z,7.47
2018-06-12T08:30:49.206Z,7.50
2018-06-12T08:33:17.817Z,7.60
2018-06-12T08:35:46.532Z,7.97
2018-06-12T08:38:15.217Z,7.77
2018-06-12T08:40:43.746Z,7.23
2018-06-12T08:43:12.509Z,6.58
2018-06-12T08:45:41.070Z,6.70
2018-06-12T08:48:09.749Z,6.12
2018-06-12T08:50:38.361Z,5.33
2018-06-12T08:53:07.302Z,5.40
2018-06-12T08:55:36.312Z,5.85
2018-06-12T08:58:04.827Z,5.83
2018-06-12T09:00:33.384Z,5.47
2018-06-12T09:03:01.855Z,5.42
2018-06-12T09:05:30.344Z,4.92
2018-06-12T09:07:58.871Z,5.08
2018-06-12T09:10:27.395Z,5.50
2018-06-12T09:12:56.195Z,5.20
2018-06-12T09:15:24.848Z,6.23
2018-06-12T09:17:53.481Z,5.73
2018-06-12T09:20:22.168Z,5.20
2018-06-12T09:22:51.057Z,5.37
2018-06-12T09:25:19.610Z,5.20
2018-06-12T09:27:48.333Z,5.80
2018-06-12T09:30:18.076Z,5.57
2018-06-12T09:32:47.220Z,5.87
2018-06-12T09:35:15.813Z,6.27
2018-06-12T09:37:44.367Z,5.87
2018-06-12T09:40:12.948Z,6.40
2018-06-12T09:42:41.659Z,6.37
2018-06-12T09:45:10.253Z,6.60
2018-06-12T09:47:39.012Z,7.20
2018-06-12T09:50:07.844Z,6.97
2018-06-12T09:52:36.759Z,6.73
2018-06-12T09:55:05.723Z,6.53
2018-06-12T09:57:34.690Z,6.30
2018-06-12T10:00:03.265Z,6.77
2018-06-12T10:02:31.972Z,6.70
2018-06-12T10:05:00.723Z,6.90
2018-06-12T10:07:30.438Z,6.67
2018-06-12T10:09:59.029Z,6.13
2018-06-12T10:12:27.590Z,7.17
2018-06-12T10:14:57.804Z,7.63
2018-06-12T10:17:26.437Z,7.03
2018-06-12T10:19:55.138Z,7.00
2018-06-12T10:22:24.290Z,6.60
2018-06-12T10:24:53.782Z,6.93
2018-06-12T10:27:22.389Z,6.93
2018-06-12T10:29:51.013Z,6.23
2018-06-12T10:32:21.398Z,7.40
2018-06-12T10:34:50.534Z,6.30
2018-06-12T10:37:19.229Z,6.07
2018-06-12T10:39:47.754Z,6.30
2018-06-12T10:42:16.290Z,5.40
2018-06-12T10:44:46.177Z,5.53
2018-06-12T10:47:14.885Z,5.50
2018-06-12T10:49:43.591Z,5.27
2018-06-12T10:52:12.921Z,5.22
2018-06-12T10:54:41.709Z,5.53
2018-06-12T10:57:10.673Z,4.45
2018-06-12T10:59:39.284Z,4.53
2018-06-12T11:02:07.778Z,5.70
2018-06-12T11:04:37.234Z,5.60
2018-06-12T11:07:05.856Z,5.25
2018-06-12T11:09:34.589Z,4.75
2018-06-12T11:12:03.576Z,4.47
2018-06-12T11:14:32.122Z,4.40
2018-06-12T11:17:00.969Z,4.60
2018-06-12T11:19:29.589Z,4.60
2018-06-12T11:21:59.434Z,5.10
2018-06-12T11:24:28.096Z,5.00
2018-06-12T11:26:57.076Z,4.77
2018-06-12T11:29:25.722Z,5.00
2018-06-12T11:31:54.669Z,4.60
2018-06-12T11:34:23.574Z,5.00
2018-06-12T11:36:52.139Z,5.03
2018-06-12T11:39:21.031Z,4.87
2018-06-12T11:41:49.933Z,4.57
2018-06-12T11:44:18.734Z,4.73
2018-06-12T11:46:47.317Z,4.87
2018-06-12T11:49:18.861Z,4.50
2018-06-12T11:51:47.471Z,5.80
2018-06-12T11:54:16.598Z,5.20
2018-06-12T11:56:45.189Z,4.87
2018-06-12T11:59:13.868Z,5.33
2018-06-12T12:01:42.761Z,5.77
2018-06-12T12:04:11.487Z,5.30
2018-06-12T12:06:40.204Z,5.00
2018-06-12T12:09:09.592Z,5.40
2018-06-12T12:11:38.457Z,5.30
2018-06-12T12:14:07.978Z,4.93
2018-06-12T12:16:36.548Z,4.80
2018-06-12T12:19:05.292Z,5.17
2018-06-12T12:21:33.823Z,5.00
2018-06-12T12:24:03.130Z,5.40
2018-06-12T12:26:31.846Z,5.37
2018-06-12T12:29:00.384Z,5.40
2018-06-12T12:31:29.254Z,5.37
2018-06-12T12:33:58.249Z,5.80
2018-06-12T12:36:26.938Z,6.40
2018-06-12T12:38:55.513Z,6.70
2018-06-12T12:41:24.313Z,6.87
2018-06-12T12:43:52.891Z,6.97
2018-06-12T12:46:21.892Z,7.17
2018-06-12T12:48:50.454Z,6.73
2018-06-12T12:51:18.940Z,6.70
2018-06-12T12:53:47.460Z,5.53
2018-06-12T12:56:16.458Z,6.50
2018-06-12T12:58:45.197Z,6.63
2018-06-12T13:01:13.977Z,6.00
2018-06-12T13:03:42.520Z,6.77
2018-06-12T13:06:11.063Z,6.60
2018-06-12T13:08:39.614Z,6.17
2018-06-12T13:11:08.382Z,6.07
2018-06-12T13:13:37.016Z,5.90
2018-06-12T13:16:06.446Z,5.40
2018-06-12T13:18:35.596Z,4.43
2018-06-12T13:21:04.104Z,4.43
2018-06-12T13:23:32.728Z,3.60
2018-06-12T13:26:02.288Z,3.80
2018-06-12T13:28:30.798Z,3.80
2018-06-12T13:30:59.477Z,3.70
2018-06-12T13:33:28.230Z,4.60
2018-06-12T13:35:56.807Z,3.70
2018-06-12T13:38:25.332Z,4.20
2018-06-12T13:40:53.933Z,3.23
2018-06-12T13:43:22.632Z,3.30
2018-06-12T13:45:51.140Z,3.50
2018-06-12T13:48:26.262Z,4.00
2018-06-12T13:50:54.844Z,4.20
2018-06-12T13:53:23.485Z,5.10
2018-06-12T13:55:52.026Z,6.20
2018-06-12T13:58:20.561Z,6.53
2018-06-12T14:00:49.082Z,7.03
2018-06-12T14:03:17.617Z,7.37
2018-06-12T14:05:46.232Z,8.70
2018-06-12T14:08:14.897Z,9.50
2018-06-12T14:10:43.442Z,8.50
2018-06-12T14:13:11.972Z,8.17
2018-06-12T14:15:40.778Z,8.17
2018-06-12T14:18:09.608Z,8.13
2018-06-12T14:20:38.517Z,8.20
2018-06-12T14:23:10.362Z,5.60
2018-06-12T14:25:39.128Z,5.47
2018-06-12T14:28:07.898Z,5.60
2018-06-12T14:30:36.729Z,5.60
2018-06-12T14:33:05.382Z,5.70
2018-06-12T14:35:34.139Z,5.30
2018-06-12T14:38:02.878Z,5.37
2018-06-12T14:40:31.931Z,6.77
2018-06-12T14:43:00.902Z,8.00
2018-06-12T14:45:29.864Z,8.37
2018-06-12T14:47:58.720Z,8.90
2018-06-12T14:50:27.476Z,7.20
2018-06-12T14:52:56.388Z,7.70
2018-06-12T14:55:25.263Z,7.70
2018-06-12T14:57:53.937Z,7.50
2018-06-12T15:00:22.818Z,8.93
2018-06-12T15:02:52.391Z,9.10
2018-06-12T15:05:20.987Z,9.27
2018-06-12T15:07:50.020Z,11.20
2018-06-12T15:10:18.820Z,11.93
2018-06-12T15:12:47.935Z,10.27
2018-06-12T15:15:16.809Z,11.23
2018-06-12T15:17:45.533Z,11.20
2018-06-12T15:20:14.201Z,12.40
2018-06-12T15:22:43.124Z,11.80
2018-06-12T15:25:11.894Z,12.40
2018-06-12T15:27:40.445Z,12.43
2018-06-12T15:30:09.014Z,12.17
2018-06-12T15:32:37.731Z,12.33
2018-06-12T15:35:06.278Z,13.20
2018-06-12T15:37:34.817Z,13.30
2018-06-12T15:40:03.645Z,13.33
2018-06-12T15:42:32.293Z,13.40
2018-06-12T15:45:01.527Z,13.30
2018-06-12T15:47:30.181Z,14.07
2018-06-12T15:49:58.826Z,14.20
2018-06-12T15:52:27.504Z,14.57
2018-06-12T15:54:56.673Z,15.30
2018-06-12T15:57:25.405Z,14.27
2018-06-12T15:59:53.941Z,14.70
2018-06-12T16:02:22.597Z,14.53
2018-06-12T16:04:51.360Z,14.17
2018-06-12T16:07:19.929Z,16.13
2018-06-12T16:09:48.597Z,15.10
2018-06-12T16:12:17.126Z,15.53
2018-06-12T16:14:45.663Z,16.37
2018-06-12T16:17:14.633Z,15.87
2018-06-12T16:19:43.700Z,16.27
2018-06-12T16:22:12.569Z,15.27
2018-06-12T16:24:41.674Z,14.57
2018-06-12T16:27:10.284Z,15.70
2018-06-12T16:29:38.822Z,16.30
2018-06-12T16:32:07.428Z,14.90
2018-06-12T16:34:35.980Z,15.87
2018-06-12T16:37:05.524Z,15.73
2018-06-12T16:39:34.307Z,15.90
2018-06-12T16:42:02.887Z,14.67
2018-06-12T16:44:32.481Z,15.27
2018-06-12T16:47:01.041Z,15.10
2018-06-12T16:49:29.661Z,14.23
2018-06-12T16:52:00.464Z,14.07
2018-06-12T16:54:29.021Z,13.87
2018-06-12T16:56:57.913Z,12.37
2018-06-12T16:59:27.190Z,13.60
2018-06-12T17:01:55.705Z,13.53
2018-06-12T17:04:24.237Z,13.40
2018-06-12T17:06:52.809Z,13.80
2018-06-12T17:09:21.363Z,13.80
2018-06-12T17:11:49.972Z,13.73
2018-06-12T17:14:19.504Z,13.90
2018-06-12T17:16:48.721Z,13.63
2018-06-12T17:19:17.389Z,12.87
2018-06-12T17:21:46.390Z,12.83
2018-06-12T17:24:14.954Z,13.03
2018-06-12T17:26:43.693Z,13.60
2018-06-12T17:29:12.571Z,13.30
2018-06-12T17:31:41.960Z,14.37
2018-06-12T17:34:10.822Z,13.67
2018-06-12T17:36:39.636Z,14.00
2018-06-12T17:39:09.072Z,13.93
2018-06-12T17:41:38.190Z,15.10
2018-06-12T17:44:07.024Z,14.40
2018-06-12T17:46:35.586Z,14.27
2018-06-12T17:49:04.146Z,15.17
2018-06-12T17:51:32.712Z,14.37
2018-06-12T17:54:01.268Z,15.53
2018-06-12T17:56:29.842Z,15.27
2018-06-12T17:58:58.425Z,15.60
2018-06-12T18:01:26.991Z,16.07
2018-06-12T18:03:55.595Z,15.50
2018-06-12T18:06:24.149Z,15.23
2018-06-12T18:08:52.671Z,13.67
2018-06-12T18:11:21.349Z,7.60
2018-06-12T18:13:49.991Z,4.27
2018-06-12T18:16:18.642Z,4.57
2018-06-12T18:18:47.173Z,3.73
2018-06-12T18:21:15.692Z,3.37
2018-06-12T18:23:44.272Z,2.60
2018-06-12T18:26:12.783Z,2.87
2018-06-12T18:28:41.369Z,3.00
2018-06-12T18:31:09.940Z,2.63
2018-06-12T18:33:38.608Z,3.10
2018-06-12T18:36:07.144Z,4.53
2018-06-12T18:38:35.778Z,4.63
2018-06-12T18:41:04.324Z,5.77
2018-06-12T18:43:32.860Z,5.97
2018-06-12T18:46:01.372Z,6.83
2018-06-12T18:48:29.906Z,7.07
2018-06-12T18:50:58.458Z,8.13
2018-06-12T18:53:26.995Z,8.80
2018-06-12T18:55:55.647Z,9.30
2018-06-12T18:58:24.247Z,8.27
2018-06-12T19:00:52.868Z,7.10
2018-06-12T19:03:21.394Z,8.77
2018-06-12T19:05:49.978Z,8.13
2018-06-12T19:08:18.497Z,7.37
2018-06-12T19:10:47.054Z,7.50
2018-06-12T19:13:15.621Z,8.37
2018-06-12T19:15:44.150Z,9.23
2018-06-12T19:18:12.707Z,7.73
2018-06-12T19:20:41.353Z,5.97
2018-06-12T19:23:10.051Z,7.10
2018-06-12T19:25:38.587Z,9.97
2018-06-12T19:28:07.209Z,10.77
2018-06-12T19:30:36.572Z,8.70
2018-06-12T19:33:05.108Z,9.50
2018-06-12T19:35:33.606Z,9.50
2018-06-12T19:38:04.286Z,10.10
2018-06-12T19:40:32.948Z,8.33
2018-06-12T19:43:01.487Z,9.67
2018-06-12T19:45:30.025Z,8.47
2018-06-12T19:47:58.715Z,9.10
2018-06-12T19:50:27.276Z,10.07
2018-06-12T19:52:55.888Z,10.00
2018-06-12T19:55:24.459Z,10.37
2018-06-12T19:57:53.071Z,11.30
2018-06-12T20:00:21.632Z,13.10
2018-06-12T20:02:50.262Z,14.07
2018-06-12T20:05:18.921Z,12.57
2018-06-12T20:07:47.597Z,13.87
2018-06-12T20:10:16.184Z,14.50
2018-06-12T20:12:44.920Z,15.47
2018-06-12T20:15:13.544Z,16.57
2018-06-12T20:17:42.247Z,15.97
2018-06-12T20:20:10.802Z,14.37
2018-06-12T20:22:39.400Z,18.60
2018-06-12T20:25:07.977Z,16.33
2018-06-12T20:27:36.625Z,18.73
2018-06-12T20:30:05.248Z,16.63
2018-06-12T20:32:33.836Z,17.03
2018-06-12T20:35:02.350Z,16.80
2018-06-12T20:37:31.061Z,19.00
2018-06-12T20:39:59.693Z,19.03
2018-06-12T20:42:28.274Z,18.93
2018-06-12T20:44:56.932Z,17.60
2018-06-12T20:47:25.544Z,15.60
2018-06-12T20:49:54.306Z,15.73
2018-06-12T20:52:22.962Z,17.07
2018-06-12T20:54:51.566Z,17.80
2018-06-12T20:57:20.087Z,19.20
2018-06-12T20:59:48.617Z,18.40
2018-06-12T21:02:17.296Z,21.00
2018-06-12T21:04:45.867Z,20.47
2018-06-12T21:07:14.578Z,18.70
2018-06-12T21:09:43.031Z,19.80
2018-06-12T21:12:11.658Z,20.07
2018-06-12T21:14:40.244Z,21.50
2018-06-12T21:17:08.801Z,22.90
2018-06-12T21:19:37.302Z,22.47
2018-06-12T21:22:05.824Z,25.67
2018-06-12T21:24:34.366Z,25.83
2018-06-12T21:27:02.880Z,25.07
2018-06-12T21:29:31.439Z,26.13
2018-06-12T21:32:00.020Z,27.33
2018-06-12T21:34:28.569Z,24.63
2018-06-12T21:36:57.205Z,24.27
2018-06-12T21:39:25.795Z,26.57
2018-06-12T21:41:54.303Z,22.70
2018-06-12T21:44:22.875Z,24.93
2018-06-12T21:46:51.512Z,24.87
2018-06-12T21:49:20.096Z,25.57
2018-06-12T21:51:48.841Z,25.77
2018-06-12T21:54:17.421Z,26.80
2018-06-12T21:56:45.982Z,26.73
2018-06-12T21:59:14.557Z,25.83
2018-06-12T22:01:43.101Z,24.87
2018-06-12T22:04:11.599Z,24.17
2018-06-12T22:06:40.208Z,23.10
2018-06-12T22:09:08.746Z,24.00
2018-06-12T22:11:37.332Z,22.93
2018-06-12T22:14:05.977Z,25.30
2018-06-12T22:16:34.566Z,24.80
2018-06-12T22:19:03.334Z,24.90
2018-06-12T22:21:31.858Z,24.40
2018-06-12T22:24:00.453Z,24.07
2018-06-12T22:26:29.172Z,23.50
2018-06-12T22:28:57.767Z,25.33
2018-06-12T22:31:26.416Z,24.70
2018-06-12T22:33:55.030Z,23.13
2018-06-12T22:36:23.693Z,24.40
2018-06-12T22:38:52.300Z,24.30
2018-06-12T22:41:20.855Z,23.67
2018-06-12T22:43:49.384Z,24.30
2018-06-12T22:46:18.033Z,25.10
2018-06-12T22:48:46.699Z,26.40
2018-06-12T22:51:15.340Z,25.87
2018-06-12T22:53:43.885Z,25.77
2018-06-12T22:56:12.423Z,26.50
2018-06-12T22:58:40.957Z,23.57
2018-06-12T23:01:09.506Z,24.20
2018-06-12T23:03:38.062Z,23.70
2018-06-12T23:06:06.754Z,24.67
2018-06-12T23:08:35.293Z,25.73
2018-06-12T23:11:03.885Z,23.83
2018-06-12T23:13:32.421Z,26.57
2018-06-12T23:16:01.008Z,26.03
2018-06-12T23:18:29.512Z,27.20
2018-06-12T23:22:06.277Z,25.47
2018-06-12T23:24:34.853Z,27.00
2018-06-12T23:27:03.424Z,25.93
2018-06-12T23:29:31.961Z,27.07
2018-06-12T23:32:00.585Z,25.97
2018-06-12T23:34:29.148Z,26.93
2018-06-12T23:36:57.925Z,28.00
2018-06-12T23:39:26.634Z,28.40
2018-06-12T23:41:55.084Z,28.53
2018-06-12T23:44:23.619Z,27.40
2018-06-12T23:46:52.178Z,28.93
2018-06-12T23:49:20.690Z,27.80
2018-06-12T23:51:49.257Z,29.30
2018-06-12T23:54:17.798Z,29.53
2018-06-12T23:56:46.313Z,30.50
2018-06-12T23:59:15.013Z,29.57
